Time;durP1;ratioP1;P1;durP2;ratioP2;P2;SDS_P1;SDS_P2;PMS_P1;PMS_P2;Temp;Humidity;BMP_temperature;BMP_pressure;BME280_temperature;BME280_humidity;BME280_pressure;Samples;Min_cycle;Max_cycle;Signal;HPM_P1;HPM_P2
2023/09/10 00:02:15;;;;;;;6.72;5.25;;;;;;;16.80;50.40;95264.59;5118624;28;20255;-66
2023/09/10 00:04:42;;;;;;;5.55;4.97;;;;;;;16.75;50.33;95268.53;5118268;28;20210;-66
2023/09/10 00:07:09;;;;;;;4.18;3.70;;;;;;;16.74;49.61;95266.97;5135949;28;20175;-66
2023/09/10 00:09:35;;;;;;;3.97;3.58;;;;;;;16.73;49.94;95272.88;5135772;28;20215;-66
2023/09/10 00:12:02;;;;;;;5.07;3.67;;;;;;;16.69;49.48;95275.63;5117993;28;20595;-66
2023/09/10 00:14:29;;;;;;;5.53;3.70;;;;;;;16.68;49.87;95276.81;5137457;27;20187;-66
2023/09/10 00:16:57;;;;;;;4.38;3.83;;;;;;;16.60;51.25;95275.19;5122043;27;20191;-66
2023/09/10 00:19:24;;;;;;;4.25;3.60;;;;;;;16.54;51.44;95279.50;5122012;27;20201;-66
2023/09/10 00:21:51;;;;;;;4.57;3.22;;;;;;;16.48;51.47;95259.56;5139617;27;20268;-66
2023/09/10 00:24:17;;;;;;;3.58;3.17;;;;;;;16.41;51.86;95267.84;5121690;27;20230;-66
2023/09/10 00:26:44;;;;;;;4.90;3.70;;;;;;;16.33;51.93;95264.22;5122108;27;20191;-66
2023/09/10 00:29:11;;;;;;;4.97;3.50;;;;;;;16.32;52.29;95270.97;5139905;27;20206;-66
2023/09/10 00:31:38;;;;;;;5.25;3.53;;;;;;;16.29;52.11;95265.38;5139239;27;20234;-66
2023/09/10 00:34:06;;;;;;;4.07;3.22;;;;;;;16.24;52.35;95265.75;5121686;27;20191;-66
2023/09/10 00:36:34;;;;;;;4.95;2.88;;;;;;;16.22;52.30;95268.09;5122215;27;20195;-66
2023/09/10 00:39:01;;;;;;;3.78;3.20;;;;;;;16.18;51.81;95258.94;5121735;27;20206;-66
2023/09/10 00:41:27;;;;;;;3.00;2.78;;;;;;;16.18;52.65;95270.84;5139615;27;20198;-66
2023/09/10 00:43:54;;;;;;;3.78;2.95;;;;;;;16.17;52.50;95260.91;5139496;27;20247;-66
2023/09/10 00:46:21;;;;;;;2.97;2.78;;;;;;;16.15;52.82;95256.91;5139107;27;20665;-66
2023/09/10 00:48:47;;;;;;;4.10;3.03;;;;;;;16.13;52.82;95254.53;5139382;27;20202;-66
2023/09/10 00:51:16;;;;;;;3.58;2.80;;;;;;;16.07;53.05;95262.41;5139398;27;20183;-66
2023/09/10 00:53:42;;;;;;;3.47;3.00;;;;;;;16.04;53.00;95257.59;5139300;27;20186;-66
2023/09/10 00:56:10;;;;;;;3.47;3.10;;;;;;;16.05;53.40;95269.53;5121442;27;20199;-66
2023/09/10 00:58:37;;;;;;;3.53;3.22;;;;;;;16.00;53.45;95267.09;5139290;27;20194;-66
2023/09/10 01:01:04;;;;;;;4.07;3.15;;;;;;;15.94;53.79;95268.63;5121063;27;20203;-66
2023/09/10 01:03:31;;;;;;;4.35;3.22;;;;;;;15.88;53.39;95260.66;5121291;27;20206;-66
2023/09/10 01:05:58;;;;;;;3.45;2.88;;;;;;;15.80;53.41;95264.56;5138948;27;20223;-66
2023/09/10 01:08:26;;;;;;;4.05;3.20;;;;;;;15.75;53.36;95264.88;5120632;27;20184;-66
2023/09/10 01:10:59;;;;;;;4.22;3.55;;;;;;;15.75;53.69;95256.53;5120988;27;20259;-66
2023/09/10 01:13:32;;;;;;;4.72;4.00;;;;;;;15.79;53.54;95264.91;5138737;27;20248;-66
2023/09/10 01:16:03;;;;;;;3.70;3.40;;;;;;;15.81;53.93;95257.00;5138652;27;20183;-66
2023/09/10 01:18:32;;;;;;;5.00;3.67;;;;;;;15.83;53.52;95257.41;5121186;27;20191;-65
2023/09/10 01:21:26;;;;;;;3.83;2.97;;;;;;;15.81;53.94;95257.00;5120501;27;20199;-65
2023/09/10 01:24:09;;;;;;;3.92;3.60;;;;;;;15.77;54.02;95253.38;5120437;27;20271;-65
2023/09/10 01:26:38;;;;;;;4.53;3.67;;;;;;;15.73;53.86;95247.00;5137556;27;20646;-65
2023/09/10 01:29:05;;;;;;;6.10;3.80;;;;;;;15.71;53.66;95246.56;5138932;27;20206;-66
2023/09/10 01:31:32;;;;;;;5.45;3.60;;;;;;;15.67;54.39;95254.88;5117015;28;20235;-66
2023/09/10 01:34:02;;;;;;;4.72;3.97;;;;;;;15.67;54.32;95263.22;5116801;28;20191;-65
2023/09/10 01:36:34;;;;;;;5.75;3.70;;;;;;;15.65;54.03;95262.78;5117605;28;20196;-66
2023/09/10 01:39:07;;;;;;;5.28;3.92;;;;;;;15.58;54.16;95260.72;5117895;28;20184;-66
2023/09/10 01:41:34;;;;;;;5.55;4.13;;;;;;;15.53;54.60;95263.03;5117930;28;20200;-66
2023/09/10 01:44:03;;;;;;;6.70;4.90;;;;;;;15.53;54.30;95263.81;5117026;28;20196;-66
2023/09/10 01:46:30;;;;;;;5.57;4.78;;;;;;;15.54;53.79;95259.06;5116788;28;20207;-67
2023/09/10 01:48:57;;;;;;;6.13;4.22;;;;;;;15.56;54.51;95256.69;5117398;28;20206;-67
2023/09/10 01:51:24;;;;;;;6.00;4.00;;;;;;;15.52;54.91;95264.22;5116580;28;20688;-67
2023/09/10 01:53:51;;;;;;;5.45;4.63;;;;;;;15.47;54.92;95259.78;5116646;28;20213;-67
2023/09/10 01:56:17;;;;;;;6.38;4.85;;;;;;;15.41;54.73;95267.66;5117195;28;20192;-67
2023/09/10 01:58:44;;;;;;;5.43;4.72;;;;;;;15.36;55.03;95278.31;5117514;28;20183;-67
2023/09/10 02:01:12;;;;;;;6.93;5.57;;;;;;;15.30;54.93;95277.84;5117620;28;20184;-66
2023/09/10 02:03:39;;;;;;;6.03;5.40;;;;;;;15.27;55.01;95280.59;5117581;28;20224;-67
2023/09/10 02:06:06;;;;;;;7.28;4.68;;;;;;;15.25;55.20;95282.94;5116907;28;20224;-67
2023/09/10 02:08:32;;;;;;;7.60;5.30;;;;;;;15.21;55.23;95279.31;5116986;28;20669;-67
2023/09/10 02:11:03;;;;;;;4.82;4.35;;;;;;;15.17;55.51;95280.06;5116733;28;20277;-67
2023/09/10 02:13:30;;;;;;;6.10;4.57;;;;;;;15.21;55.62;95276.53;5116624;28;20191;-67
2023/09/10 02:15:57;;;;;;;5.47;4.95;;;;;;;15.21;55.40;95279.31;5117126;28;20183;-66
2023/09/10 02:18:26;;;;;;;6.60;4.30;;;;;;;15.20;55.53;95283.28;5117012;28;20223;-66
2023/09/10 02:20:53;;;;;;;7.47;4.70;;;;;;;15.19;55.17;95284.47;5116071;28;20199;-67
2023/09/10 02:23:20;;;;;;;5.05;4.55;;;;;;;15.13;55.42;95290.31;5116325;28;20188;-67
2023/09/10 02:25:46;;;;;;;5.57;4.75;;;;;;;15.11;55.92;95289.13;5115977;28;20211;-66
2023/09/10 02:28:13;;;;;;;5.43;4.43;;;;;;;15.11;56.10;95280.78;5116733;28;20203;-67
2023/09/10 02:30:40;;;;;;;5.82;5.00;;;;;;;15.10;56.02;95288.28;5116059;28;20594;-67
2023/09/10 02:33:09;;;;;;;6.50;5.25;;;;;;;15.08;55.94;95289.88;5116676;28;20180;-67
2023/09/10 02:35:37;;;;;;;7.25;5.30;;;;;;;15.05;55.59;95285.84;5116604;28;20206;-67
2023/09/10 02:38:04;;;;;;;7.60;6.03;;;;;;;15.02;55.62;95289.38;5115852;28;20195;-66
2023/09/10 02:40:31;;;;;;;6.50;5.90;;;;;;;14.99;55.99;95281.81;5116863;28;20206;-66
2023/09/10 02:42:58;;;;;;;6.60;6.00;;;;;;;14.92;56.00;95285.31;5116949;28;20187;-66
2023/09/10 02:45:25;;;;;;;6.63;5.60;;;;;;;14.96;56.16;95281.75;5116766;28;20708;-66
2023/09/10 02:47:52;;;;;;;5.50;4.97;;;;;;;14.93;56.18;95280.53;5115527;28;20194;-66
2023/09/10 02:50:18;;;;;;;7.95;5.53;;;;;;;14.94;56.11;95268.25;5116727;28;20191;-66
2023/09/10 02:52:47;;;;;;;8.35;7.45;;;;;;;14.96;55.05;95271.47;5116709;28;20592;-67
2023/09/10 02:55:16;;;;;;;8.88;7.25;;;;;;;14.98;55.21;95269.09;5115901;28;20195;-67
2023/09/10 02:57:43;;;;;;;6.22;5.38;;;;;;;14.99;56.05;95267.91;5116359;28;20282;-67
2023/09/10 03:00:11;;;;;;;7.35;5.82;;;;;;;14.99;56.29;95281.00;5115389;28;20200;-67
2023/09/10 03:02:38;;;;;;;5.72;5.13;;;;;;;14.93;56.47;95273.00;5116220;28;20204;-67
2023/09/10 03:05:06;;;;;;;5.72;5.10;;;;;;;14.88;56.51;95276.09;5115069;28;20254;-67
2023/09/10 03:07:33;;;;;;;5.43;4.93;;;;;;;14.88;56.46;95278.06;5115123;28;20211;-67
2023/09/10 03:10:01;;;;;;;7.05;5.10;;;;;;;14.82;56.47;95274.84;5115279;28;20192;-66
2023/09/10 03:12:29;;;;;;;7.15;5.05;;;;;;;14.83;56.75;95275.63;5115101;28;20192;-66
2023/09/10 03:14:56;;;;;;;6.28;4.75;;;;;;;14.84;56.87;95275.25;5115223;28;20192;-66
2023/09/10 03:17:23;;;;;;;5.93;5.07;;;;;;;14.86;56.95;95286.00;5116155;28;20188;-66
2023/09/10 03:19:49;;;;;;;5.40;4.70;;;;;;;14.84;57.13;95282.78;5115650;28;20195;-66
2023/09/10 03:22:16;;;;;;;5.38;4.80;;;;;;;14.77;56.62;95289.03;5116124;28;20188;-66
2023/09/10 03:24:43;;;;;;;6.85;4.90;;;;;;;14.71;56.94;95290.56;5115216;28;20241;-67
2023/09/10 03:27:11;;;;;;;6.30;4.90;;;;;;;14.67;57.06;95296.06;5114715;28;20215;-67
2023/09/10 03:29:38;;;;;;;6.10;5.00;;;;;;;14.64;57.05;95284.88;5118370;27;20210;-66
2023/09/10 03:32:07;;;;;;;6.95;5.10;;;;;;;14.61;57.39;95289.22;5136319;27;20201;-66
2023/09/10 03:34:34;;;;;;;5.45;4.45;;;;;;;14.58;57.53;95298.28;5136223;27;20195;-66
2023/09/10 03:37:03;;;;;;;6.82;4.82;;;;;;;14.56;57.42;95297.03;5136267;27;20210;-66
2023/09/10 03:39:30;;;;;;;6.10;4.43;;;;;;;14.55;57.63;95296.25;5118368;27;20199;-66
2023/09/10 03:41:56;;;;;;;5.65;4.82;;;;;;;14.56;57.69;95306.19;5135897;27;20580;-66
2023/09/10 03:44:24;;;;;;;6.10;5.05;;;;;;;14.54;57.71;95305.75;5118288;28;20187;-66
2023/09/10 03:46:52;;;;;;;7.13;4.55;;;;;;;14.49;57.73;95302.44;5136327;28;20221;-66
2023/09/10 03:49:19;;;;;;;4.47;4.00;;;;;;;14.43;57.63;95308.31;5117970;28;20210;-66
2023/09/10 03:51:46;;;;;;;6.88;4.25;;;;;;;14.40;57.82;95305.50;5135827;28;20655;-67
2023/09/10 03:54:13;;;;;;;6.03;5.05;;;;;;;14.35;57.93;95303.84;5136149;28;20215;-67
2023/09/10 03:56:39;;;;;;;7.50;4.10;;;;;;;14.33;58.27;95314.50;5118118;28;20622;-66
2023/09/10 03:59:07;;;;;;;4.82;4.30;;;;;;;14.33;58.32;95303.41;5136097;28;20199;-66
2023/09/10 04:01:36;;;;;;;6.82;4.10;;;;;;;14.35;57.90;95312.16;5118179;28;20191;-66
2023/09/10 04:04:03;;;;;;;5.32;3.90;;;;;;;14.38;58.06;95307.84;5118650;28;20260;-66
2023/09/10 04:06:30;;;;;;;6.32;4.18;;;;;;;14.41;57.93;95313.44;5117953;28;20223;-65
2023/09/10 04:08:57;;;;;;;5.93;4.45;;;;;;;14.41;58.10;95313.44;5136168;28;20199;-67
2023/09/10 04:11:23;;;;;;;5.53;4.22;;;;;;;14.44;57.96;95314.66;5136032;28;20183;-66
2023/09/10 04:13:50;;;;;;;5.78;4.15;;;;;;;14.44;57.94;95314.66;5117965;28;20621;-66
2023/09/10 04:16:17;;;;;;;4.55;3.80;;;;;;;14.41;58.51;95318.97;5135751;28;20183;-66
2023/09/10 04:18:45;;;;;;;6.20;3.85;;;;;;;14.37;58.86;95326.44;5117967;28;20236;-66
2023/09/10 04:21:12;;;;;;;7.93;4.43;;;;;;;14.29;58.15;95329.47;5117823;28;20203;-66
2023/09/10 04:23:38;;;;;;;5.45;4.00;;;;;;;14.16;58.13;95326.91;5135794;28;20261;-66
2023/09/10 04:26:05;;;;;;;5.65;3.78;;;;;;;14.17;58.50;95327.72;5135994;28;20199;-66
2023/09/10 04:28:32;;;;;;;5.78;3.53;;;;;;;14.15;58.41;95328.06;5136482;28;20213;-66
2023/09/10 04:30:58;;;;;;;5.88;3.45;;;;;;;14.15;58.40;95324.47;5117711;28;20250;-66
2023/09/10 04:33:25;;;;;;;6.35;3.70;;;;;;;14.13;58.55;95324.06;5135838;28;20198;-66
2023/09/10 04:35:57;;;;;;;5.97;4.45;;;;;;;14.14;58.08;95322.88;5135712;28;20191;-66
2023/09/10 04:38:23;;;;;;;4.25;3.83;;;;;;;14.17;58.15;95324.94;5135814;28;20214;-66
2023/09/10 04:40:50;;;;;;;4.75;4.25;;;;;;;14.22;58.06;95324.59;5135746;28;20187;-66
2023/09/10 04:43:17;;;;;;;4.18;3.60;;;;;;;14.29;58.57;95327.50;5135563;28;20205;-66
2023/09/10 04:45:43;;;;;;;4.18;3.78;;;;;;;14.36;58.63;95335.16;5117350;28;20275;-66
2023/09/10 04:48:12;;;;;;;7.38;3.78;;;;;;;14.37;58.58;95323.69;5135615;28;20252;-66
2023/09/10 04:50:39;;;;;;;5.15;3.60;;;;;;;14.41;58.52;95337.59;5118089;28;20191;-66
2023/09/10 04:53:07;;;;;;;6.13;4.35;;;;;;;14.42;58.80;95334.47;5117437;28;20205;-66
2023/09/10 04:55:35;;;;;;;5.43;3.47;;;;;;;14.43;58.69;95336.06;5135675;28;20236;-66
2023/09/10 04:58:04;;;;;;;6.18;3.63;;;;;;;14.45;58.71;95330.97;5117454;28;20207;-66
2023/09/10 05:00:31;;;;;;;5.50;3.95;;;;;;;14.50;58.82;95340.19;5117970;28;20267;-65
2023/09/10 05:02:58;;;;;;;8.38;3.95;;;;;;;14.53;59.09;95337.47;5121426;27;20199;-65
2023/09/10 05:05:24;;;;;;;6.88;4.07;;;;;;;14.57;59.06;95337.53;5139023;27;20252;-65
2023/09/10 05:07:51;;;;;;;8.75;4.30;;;;;;;14.64;59.35;95343.97;5139310;27;20183;-65
2023/09/10 05:10:19;;;;;;;5.95;4.00;;;;;;;14.67;59.26;95336.91;5121278;27;20186;-64
2023/09/10 05:12:46;;;;;;;6.15;4.10;;;;;;;14.71;58.98;95343.31;5121438;27;20606;-65
2023/09/10 05:15:13;;;;;;;6.68;4.03;;;;;;;14.76;59.04;95333.84;5120957;27;20191;-66
2023/09/10 05:17:40;;;;;;;6.53;4.20;;;;;;;14.82;59.24;95341.47;5120917;27;20201;-66
2023/09/10 05:20:08;;;;;;;5.72;3.97;;;;;;;14.89;59.14;95333.25;5139141;27;20198;-67
2023/09/10 05:22:35;;;;;;;7.13;4.18;;;;;;;14.97;59.03;95339.72;5138969;27;20281;-66
2023/09/10 05:25:02;;;;;;;6.35;4.05;;;;;;;15.02;58.66;95336.59;5120617;27;20206;-66
2023/09/10 05:27:30;;;;;;;5.63;4.32;;;;;;;15.08;58.06;95340.66;5120822;27;20302;-66
2023/09/10 05:29:57;;;;;;;7.28;4.75;;;;;;;15.16;58.13;95345.16;5117052;28;20235;-66
2023/09/10 05:32:24;;;;;;;6.35;4.07;;;;;;;15.19;57.87;95342.81;5118210;28;20245;-66
2023/09/10 05:34:51;;;;;;;5.57;4.28;;;;;;;15.26;58.01;95348.47;5117706;28;20596;-67
2023/09/10 05:37:17;;;;;;;5.88;4.20;;;;;;;15.30;57.50;95349.31;5117977;28;20275;-66
2023/09/10 05:39:44;;;;;;;5.43;4.20;;;;;;;15.33;56.83;95359.66;5116740;28;20196;-66
2023/09/10 05:42:11;;;;;;;4.63;3.95;;;;;;;15.37;56.37;95352.97;5117366;28;20191;-66
2023/09/10 05:44:39;;;;;;;8.77;2.90;;;;;;;15.43;54.76;95353.44;5117900;28;20203;-66
2023/09/10 05:47:05;;;;;;;3.00;2.80;;;;;;;15.51;53.81;95344.03;5117065;28;20207;-66
2023/09/10 05:49:33;;;;;;;3.83;2.83;;;;;;;15.57;53.54;95350.84;5116843;28;20252;-66
2023/09/10 05:51:59;;;;;;;4.53;2.90;;;;;;;15.61;52.63;95348.09;5117603;28;20644;-66
2023/09/10 05:54:26;;;;;;;2.63;2.42;;;;;;;15.65;52.77;95351.75;5116921;28;20196;-66
2023/09/10 05:56:53;;;;;;;3.92;2.72;;;;;;;15.73;52.76;95353.47;5117266;28;20192;-66
2023/09/10 05:59:19;;;;;;;3.20;2.88;;;;;;;15.79;52.63;95353.91;5116828;28;20331;-66
2023/09/10 06:01:48;;;;;;;3.10;2.55;;;;;;;15.85;52.90;95349.63;5116608;28;20202;-67
2023/09/10 06:04:14;;;;;;;3.67;2.55;;;;;;;15.87;52.04;95353.63;5116637;28;20506;-65
2023/09/10 06:06:41;;;;;;;3.45;3.15;;;;;;;15.92;51.66;95360.03;5117364;28;20208;-66
2023/09/10 06:09:09;;;;;;;3.95;2.67;;;;;;;15.97;51.59;95357.69;5117480;28;20188;-66
2023/09/10 06:11:35;;;;;;;3.63;2.55;;;;;;;16.06;51.32;95360.19;5116468;28;20506;-66
2023/09/10 06:14:02;;;;;;;6.05;3.17;;;;;;;16.16;51.50;95367.03;5116353;28;20206;-66
2023/09/10 06:16:29;;;;;;;3.45;2.67;;;;;;;16.24;51.51;95360.38;5117334;28;20191;-66
2023/09/10 06:18:58;;;;;;;3.75;2.92;;;;;;;16.34;50.82;95360.47;5116739;28;20245;-66
2023/09/10 06:21:24;;;;;;;4.60;3.00;;;;;;;16.39;51.34;95361.31;5117033;28;20192;-65
2023/09/10 06:23:51;;;;;;;3.65;2.80;;;;;;;16.42;50.74;95352.19;5115768;28;20195;-66
2023/09/10 06:26:18;;;;;;;4.03;2.88;;;;;;;16.45;50.02;95354.19;5116996;28;20543;-65
2023/09/10 06:28:45;;;;;;;6.43;2.80;;;;;;;16.47;50.61;95355.41;5117239;28;20203;-65
2023/09/10 06:31:11;;;;;;;3.90;2.78;;;;;;;16.49;50.46;95358.63;5132214;27;20245;-65
2023/09/10 06:33:38;;;;;;;3.70;3.28;;;;;;;16.52;50.58;95359.81;5137471;27;20663;-69
2023/09/10 06:36:07;;;;;;;3.00;2.67;;;;;;;16.55;50.00;95357.06;5137443;27;20202;-66
2023/09/10 06:38:33;;;;;;;3.05;2.67;;;;;;;16.63;49.70;95355.16;5119737;27;20259;-65
2023/09/10 06:41:00;;;;;;;3.58;2.88;;;;;;;16.69;49.15;95358.38;5137344;27;20191;-65
2023/09/10 06:43:27;;;;;;;2.60;2.40;;;;;;;16.75;48.07;95359.66;5137359;27;20190;-65
2023/09/10 06:45:54;;;;;;;4.57;2.63;;;;;;;16.82;47.46;95354.94;5119242;27;20224;-68
2023/09/10 06:48:21;;;;;;;2.90;2.55;;;;;;;16.88;47.33;95355.38;5119411;27;20229;-65
2023/09/10 06:50:47;;;;;;;3.15;2.85;;;;;;;16.93;47.58;95354.22;5137159;27;20255;-65
2023/09/10 06:53:15;;;;;;;5.57;3.42;;;;;;;16.99;47.16;95353.47;5119126;27;20202;-65
2023/09/10 06:55:42;;;;;;;2.97;2.72;;;;;;;17.04;47.23;95352.31;5118905;27;20199;-65
2023/09/10 06:58:09;;;;;;;7.15;2.80;;;;;;;17.10;47.59;95347.97;5119289;27;20195;-65
2023/09/10 07:00:35;;;;;;;2.80;2.58;;;;;;;17.19;47.70;95350.41;5118830;27;20191;-65
2023/09/10 07:03:06;;;;;;;3.83;2.80;;;;;;;17.29;47.61;95349.69;5137054;27;20198;-65
2023/09/10 07:05:33;;;;;;;3.53;3.22;;;;;;;17.42;48.03;95344.56;5136783;27;20183;-65
2023/09/10 07:07:59;;;;;;;3.38;3.08;;;;;;;17.53;46.74;95349.00;5136675;27;20654;-65
2023/09/10 07:10:27;;;;;;;3.17;2.88;;;;;;;17.60;46.89;95350.22;5136769;27;20197;-65
2023/09/10 07:12:54;;;;;;;4.95;3.22;;;;;;;17.70;46.99;95355.06;5118637;27;20201;-65
2023/09/10 07:15:21;;;;;;;6.63;3.75;;;;;;;17.76;46.26;95347.97;5118545;27;20614;-65
2023/09/10 07:17:48;;;;;;;4.68;3.63;;;;;;;17.84;46.37;95349.56;5136302;27;20187;-65
2023/09/10 07:20:14;;;;;;;6.22;3.90;;;;;;;17.89;46.88;95346.38;5136457;27;20201;-65
2023/09/10 07:22:41;;;;;;;3.40;3.10;;;;;;;17.95;46.56;95357.97;5118286;27;20199;-65
2023/09/10 07:25:09;;;;;;;4.05;3.50;;;;;;;18.00;46.60;95357.59;5118206;27;20191;-65
2023/09/10 07:27:38;;;;;;;4.30;3.90;;;;;;;18.09;46.64;95351.66;5118153;28;20229;-65
2023/09/10 07:30:06;;;;;;;3.90;3.00;;;;;;;18.23;47.13;95352.47;5115428;28;20227;-65
2023/09/10 07:32:32;;;;;;;7.10;4.00;;;;;;;18.34;46.58;95352.50;5115849;28;20596;-65
2023/09/10 07:35:00;;;;;;;5.07;3.50;;;;;;;18.47;46.45;95345.31;5115513;28;20283;-65
2023/09/10 07:37:27;;;;;;;5.20;3.67;;;;;;;18.60;45.74;95345.75;5116229;28;20199;-65
2023/09/10 07:39:54;;;;;;;3.80;3.50;;;;;;;18.70;45.32;95344.97;5115201;28;20210;-65
2023/09/10 07:42:20;;;;;;;5.60;3.72;;;;;;;18.81;44.60;95342.19;5115689;28;20256;-65
2023/09/10 07:44:48;;;;;;;4.80;3.63;;;;;;;18.91;44.67;95343.38;5116068;28;20184;-65
2023/09/10 07:47:15;;;;;;;7.38;5.82;;;;;;;19.03;44.13;95336.56;5115913;28;20635;-65
2023/09/10 07:49:42;;;;;;;5.35;4.85;;;;;;;19.17;43.40;95342.97;5114866;28;20199;-65
2023/09/10 07:52:09;;;;;;;4.50;4.07;;;;;;;19.28;44.18;95330.94;5115856;28;20199;-65
2023/09/10 07:54:36;;;;;;;4.40;4.00;;;;;;;19.39;44.11;95334.50;5115123;28;20195;-65
2023/09/10 07:57:03;;;;;;;5.32;3.53;;;;;;;19.49;42.77;95331.66;5115890;28;20291;-65
2023/09/10 07:59:30;;;;;;;4.38;3.67;;;;;;;19.62;43.31;95331.25;5115567;28;20240;-65
2023/09/10 08:01:59;;;;;;;4.13;3.30;;;;;;;19.79;41.57;95324.81;5114852;28;20454;-65
2023/09/10 08:04:26;;;;;;;3.88;3.13;;;;;;;19.88;42.10;95324.38;5115314;28;20248;-65
2023/09/10 08:06:53;;;;;;;4.13;3.72;;;;;;;19.96;43.16;95318.31;5114875;28;20220;-65
2023/09/10 08:09:20;;;;;;;5.03;4.47;;;;;;;20.10;42.56;95328.66;5115927;28;20191;-65
2023/09/10 08:11:47;;;;;;;4.57;3.97;;;;;;;20.34;41.85;95326.13;5115368;28;20577;-65
2023/09/10 08:14:14;;;;;;;3.75;3.45;;;;;;;20.41;41.58;95323.28;5114780;28;20207;-65
2023/09/10 08:16:40;;;;;;;4.22;3.40;;;;;;;20.58;40.47;95321.56;5116057;28;20187;-65
2023/09/10 08:19:08;;;;;;;3.75;3.30;;;;;;;20.71;40.38;95311.47;5115442;28;20184;-65
2023/09/10 08:21:35;;;;;;;6.38;3.20;;;;;;;20.84;38.57;95320.16;5114135;28;20199;-65
2023/09/10 08:24:02;;;;;;;3.80;3.00;;;;;;;21.02;38.06;95315.19;5114476;28;20195;-65
2023/09/10 08:26:29;;;;;;;3.90;3.60;;;;;;;21.16;37.75;95317.84;5115644;28;20206;-65
2023/09/10 08:28:55;;;;;;;3.58;3.28;;;;;;;21.32;37.04;95317.31;5114703;28;20203;-65
2023/09/10 08:31:22;;;;;;;3.85;3.10;;;;;;;21.48;36.62;95308.34;5132035;28;20250;-65
2023/09/10 08:33:49;;;;;;;4.38;3.22;;;;;;;21.57;37.48;95310.66;5117746;28;20203;-65
2023/09/10 08:36:17;;;;;;;4.20;3.40;;;;;;;21.66;36.39;95307.34;5120756;27;20187;-65
2023/09/10 08:38:44;;;;;;;3.83;3.38;;;;;;;21.74;36.82;95303.22;5139948;27;20496;-65
2023/09/10 08:41:18;;;;;;;4.63;3.38;;;;;;;21.88;37.42;95303.06;5139822;27;20515;-65
2023/09/10 08:43:50;;;;;;;6.32;3.30;;;;;;;21.99;37.73;95309.31;5123022;27;20255;-65
2023/09/10 08:46:16;;;;;;;3.83;3.50;;;;;;;22.12;37.34;95303.94;5122113;27;20195;-65
2023/09/10 08:48:43;;;;;;;4.03;3.45;;;;;;;22.21;37.02;95307.06;5121083;27;20210;-65
2023/09/10 08:51:10;;;;;;;7.65;3.90;;;;;;;22.32;37.77;95310.50;5139363;27;20182;-65
2023/09/10 08:53:39;;;;;;;4.50;3.58;;;;;;;22.35;38.00;95306.06;5121425;27;20179;-65
2023/09/10 08:56:08;;;;;;;6.28;3.83;;;;;;;22.49;36.88;95305.06;5121534;27;20236;-65
2023/09/10 08:58:35;;;;;;;5.32;3.80;;;;;;;22.61;37.41;95306.47;5121489;27;20305;-65
2023/09/10 09:01:03;;;;;;;4.22;3.78;;;;;;;22.70;37.13;95304.72;5139059;27;20174;-65
2023/09/10 09:03:30;;;;;;;3.88;3.53;;;;;;;22.67;36.83;95299.16;5121264;27;20512;-65
2023/09/10 09:05:59;;;;;;;5.70;3.83;;;;;;;22.73;36.29;95303.88;5139211;27;20187;-65
2023/09/10 09:08:31;;;;;;;4.18;3.65;;;;;;;22.77;36.88;95301.78;5121097;27;20236;-65
2023/09/10 09:11:00;;;;;;;4.13;3.70;;;;;;;22.88;37.11;95298.00;5121246;27;20583;-65
2023/09/10 09:13:27;;;;;;;7.03;3.72;;;;;;;23.03;36.77;95297.38;5120721;27;20199;-65
2023/09/10 09:15:54;;;;;;;4.65;4.15;;;;;;;23.19;37.22;95298.69;5120868;27;20198;-65
2023/09/10 09:18:21;;;;;;;5.20;4.70;;;;;;;23.29;36.84;95290.06;5120761;27;20611;-65
2023/09/10 09:23:37;;;;;;;4.53;3.85;;;;;;;23.33;36.39;95290.00;5120702;27;20183;-65
2023/09/10 09:26:06;;;;;;;3.90;3.60;;;;;;;23.43;36.24;95297.44;5120839;27;20187;-64
2023/09/10 09:28:34;;;;;;;4.40;3.95;;;;;;;23.44;35.68;95296.22;5138776;27;20313;-64
2023/09/10 09:31:00;;;;;;;4.72;3.42;;;;;;;23.56;37.38;95289.13;5117120;28;20235;-65
2023/09/10 09:33:27;;;;;;;4.18;3.78;;;;;;;23.62;35.88;95290.22;5118117;28;20221;-65
2023/09/10 09:35:54;;;;;;;5.45;4.05;;;;;;;23.70;35.74;95288.88;5117149;28;20204;-65
2023/09/10 09:38:21;;;;;;;4.00;3.65;;;;;;;23.73;35.48;95295.69;5118073;27;20597;-65
2023/09/10 09:40:48;;;;;;;3.95;3.65;;;;;;;23.69;35.21;95290.13;5117071;28;20203;-65
2023/09/10 09:43:16;;;;;;;5.32;4.03;;;;;;;23.78;35.70;95279.09;5118147;28;20195;-65
2023/09/10 09:45:43;;;;;;;4.35;3.95;;;;;;;24.00;35.63;95284.25;5117059;28;20180;-65
2023/09/10 09:48:09;;;;;;;4.20;3.80;;;;;;;24.14;35.15;95269.06;5116069;28;20220;-65
2023/09/10 09:50:37;;;;;;;7.20;4.30;;;;;;;24.20;34.76;95270.13;5117076;28;20210;-65
2023/09/10 09:53:04;;;;;;;5.22;3.95;;;;;;;24.22;34.58;95278.94;5117687;28;20186;-65
2023/09/10 09:55:31;;;;;;;4.38;3.97;;;;;;;24.23;34.80;95272.88;5116984;28;20204;-65
2023/09/10 09:57:58;;;;;;;3.75;3.45;;;;;;;24.21;34.94;95269.69;5117309;28;20187;-65
2023/09/10 10:00:26;;;;;;;6.03;4.90;;;;;;;24.23;35.10;95274.91;5117601;28;20195;-65
2023/09/10 10:02:53;;;;;;;4.32;3.92;;;;;;;24.40;33.53;95270.09;5116377;28;20204;-65
2023/09/10 10:05:20;;;;;;;5.72;5.00;;;;;;;24.50;34.47;95267.03;5116694;28;20248;-65
2023/09/10 10:07:48;;;;;;;5.60;4.90;;;;;;;24.51;34.22;95267.84;5116354;28;20234;-65
2023/09/10 10:10:16;;;;;;;4.85;4.45;;;;;;;24.55;34.56;95254.44;5117063;28;20180;-65
2023/09/10 10:12:44;;;;;;;5.97;3.90;;;;;;;24.48;34.06;95258.22;5116962;28;20214;-65
2023/09/10 10:15:12;;;;;;;4.40;4.00;;;;;;;24.52;34.09;95260.19;5116092;28;20689;-65
2023/09/10 10:17:41;;;;;;;4.57;4.18;;;;;;;24.55;34.57;95248.81;5117126;28;20504;-65
2023/09/10 10:20:09;;;;;;;5.13;4.00;;;;;;;24.69;34.06;95248.47;5117398;28;20236;-65
2023/09/10 10:22:36;;;;;;;7.13;4.43;;;;;;;24.74;33.98;95247.13;5116185;28;20895;-65
2023/09/10 10:25:04;;;;;;;4.82;4.03;;;;;;;24.68;33.51;95248.88;5115878;28;20203;-65
2023/09/10 10:27:33;;;;;;;5.50;3.90;;;;;;;24.66;33.70;95240.88;5115729;28;20226;-65
2023/09/10 10:29:59;;;;;;;9.02;4.20;;;;;;;24.74;34.18;95225.34;5121849;27;20272;-65
2023/09/10 10:32:30;;;;;;;5.68;4.93;;;;;;;24.83;33.95;95230.38;5137530;27;20264;-65
2023/09/10 10:35:01;;;;;;;6.07;4.80;;;;;;;24.95;33.79;95226.06;5119362;27;20678;-65
2023/09/10 10:37:33;;;;;;;5.75;4.63;;;;;;;25.03;34.05;95224.63;5137406;27;20183;-65
2023/09/10 10:40:08;;;;;;;5.07;4.57;;;;;;;25.20;33.24;95225.41;5119525;27;20185;-65
2023/09/10 10:42:39;;;;;;;5.57;4.30;;;;;;;25.23;33.59;95229.38;5137424;27;20206;-65
2023/09/10 10:45:07;;;;;;;5.43;3.80;;;;;;;25.26;33.42;95229.28;5119207;27;20194;-65
2023/09/10 10:47:39;;;;;;;6.68;4.88;;;;;;;25.20;33.19;95217.75;5137214;27;20230;-65
2023/09/10 10:50:09;;;;;;;6.30;5.15;;;;;;;25.20;33.54;95211.28;5119287;27;20195;-65
2023/09/10 10:52:40;;;;;;;4.95;4.40;;;;;;;25.01;33.29;95220.66;5137224;27;20195;-65
2023/09/10 10:55:07;;;;;;;5.05;4.55;;;;;;;25.02;33.45;95210.94;5119305;27;20263;-65
2023/09/10 10:57:35;;;;;;;6.78;4.85;;;;;;;25.10;33.06;95209.53;5136780;27;20194;-65
2023/09/10 11:00:03;;;;;;;4.88;4.45;;;;;;;25.17;32.97;95209.38;5135989;27;20187;-65
2023/09/10 11:02:30;;;;;;;5.25;4.25;;;;;;;25.23;33.14;95203.97;5136916;27;20209;-65
2023/09/10 11:04:58;;;;;;;8.27;4.40;;;;;;;25.30;32.44;95200.94;5136833;27;20199;-65
2023/09/10 11:07:29;;;;;;;6.53;4.50;;;;;;;25.19;32.85;95204.06;5118460;27;20585;-65
2023/09/10 11:09:57;;;;;;;7.15;4.95;;;;;;;25.10;33.02;95201.06;5136537;27;20289;-65
2023/09/10 11:12:24;;;;;;;5.20;4.70;;;;;;;24.94;33.65;95190.59;5118423;27;20183;-65
2023/09/10 11:15:10;;;;;;;5.82;4.40;;;;;;;24.72;33.44;95201.66;5136693;27;20179;-65
2023/09/10 11:17:36;;;;;;;5.32;4.55;;;;;;;24.68;33.26;95203.75;5136311;27;20187;-65
2023/09/10 11:20:05;;;;;;;4.72;4.22;;;;;;;24.66;33.59;95192.16;5136602;27;20187;-65
2023/09/10 11:23:08;;;;;;;6.88;4.85;;;;;;;24.71;33.54;95197.25;5136379;27;20228;-65
2023/09/10 11:25:35;;;;;;;5.40;4.60;;;;;;;24.82;33.12;95186.47;5136196;27;20198;-65
2023/09/10 11:28:03;;;;;;;5.07;4.22;;;;;;;24.85;33.29;95182.78;5118376;27;20258;-65
2023/09/10 11:30:30;;;;;;;4.43;3.88;;;;;;;24.85;33.21;95188.41;5135981;27;20643;-65
2023/09/10 11:33:32;;;;;;;4.55;4.00;;;;;;;24.94;33.13;95179.31;5136339;27;20205;-65
2023/09/10 11:36:01;;;;;;;4.50;4.10;;;;;;;25.07;33.35;95185.03;5136327;27;20270;-65
2023/09/10 11:38:31;;;;;;;4.47;4.07;;;;;;;25.13;32.76;95177.63;5118111;27;20206;-65
2023/09/10 11:40:59;;;;;;;5.50;5.00;;;;;;;25.16;33.05;95169.06;5118621;27;20255;-65